sensor_id;sensor_type;location;lat;lon;timestamp;pressure;altitude;pressure_sealevel;temperature;humidity
68301;BME280;55146;47.468;18.806;2022-10-16T00:01:07;100461.88;;;14.55;73.18
68301;BME280;55146;47.468;18.806;2022-10-16T00:03:33;100468.88;;;14.47;73.28
68301;BME280;55146;47.468;18.806;2022-10-16T00:06:00;100465.31;;;14.42;73.33
68301;BME280;55146;47.468;18.806;2022-10-16T00:08:26;100459.00;;;14.36;73.35
68301;BME280;55146;47.468;18.806;2022-10-16T00:10:51;100461.03;;;14.26;73.90
68301;BME280;55146;47.468;18.806;2022-10-16T00:13:16;100458.72;;;14.33;73.79
68301;BME280;55146;47.468;18.806;2022-10-16T00:15:43;100457.13;;;14.27;73.89
68301;BME280;55146;47.468;18.806;2022-10-16T00:18:09;100456.28;;;14.26;74.01
68301;BME280;55146;47.468;18.806;2022-10-16T00:20:35;100462.75;;;14.16;74.15
68301;BME280;55146;47.468;18.806;2022-10-16T00:23:02;100467.78;;;14.09;74.47
68301;BME280;55146;47.468;18.806;2022-10-16T00:25:28;100473.41;;;13.99;75.04
68301;BME280;55146;47.468;18.806;2022-10-16T00:27:54;100473.63;;;14.03;74.84
68301;BME280;55146;47.468;18.806;2022-10-16T00:30:19;100477.28;;;13.98;75.48
68301;BME280;55146;47.468;18.806;2022-10-16T00:32:45;100478.66;;;14.01;75.45
68301;BME280;55146;47.468;18.806;2022-10-16T00:35:10;100482.03;;;13.93;75.49
68301;BME280;55146;47.468;18.806;2022-10-16T00:37:35;100491.44;;;13.92;75.37
68301;BME280;55146;47.468;18.806;2022-10-16T00:40:01;100495.34;;;13.86;75.61
68301;BME280;55146;47.468;18.806;2022-10-16T00:42:26;100485.09;;;13.86;75.56
68301;BME280;55146;47.468;18.806;2022-10-16T00:44:54;100483.44;;;13.85;75.60
68301;BME280;55146;47.468;18.806;2022-10-16T00:47:54;100484.31;;;13.81;75.64
68301;BME280;55146;47.468;18.806;2022-10-16T00:50:28;100489.88;;;13.75;75.62
68301;BME280;55146;47.468;18.806;2022-10-16T00:52:54;100498.50;;;13.69;76.12
68301;BME280;55146;47.468;18.806;2022-10-16T00:55:21;100489.72;;;13.57;76.72
68301;BME280;55146;47.468;18.806;2022-10-16T00:57:48;100493.00;;;13.59;76.63
68301;BME280;55146;47.468;18.806;2022-10-16T01:00:18;100496.03;;;13.62;76.34
68301;BME280;55146;47.468;18.806;2022-10-16T01:02:44;100510.09;;;13.66;76.18
68301;BME280;55146;47.468;18.806;2022-10-16T01:05:10;100511.50;;;13.63;76.66
68301;BME280;55146;47.468;18.806;2022-10-16T01:07:56;100517.59;;;13.60;76.20
68301;BME280;55146;47.468;18.806;2022-10-16T01:10:53;100511.50;;;13.63;76.43
68301;BME280;55146;47.468;18.806;2022-10-16T01:13:25;100520.66;;;13.54;76.82
68301;BME280;55146;47.468;18.806;2022-10-16T01:16:02;100514.94;;;13.35;77.40
68301;BME280;55146;47.468;18.806;2022-10-16T01:21:36;100518.28;;;13.32;78.01
68301;BME280;55146;47.468;18.806;2022-10-16T01:27:12;100522.19;;;13.11;78.65
68301;BME280;55146;47.468;18.806;2022-10-16T01:29:59;100516.03;;;13.34;76.42
68301;BME280;55146;47.468;18.806;2022-10-16T01:35:15;100516.53;;;13.46;75.35
68301;BME280;55146;47.468;18.806;2022-10-16T01:38:03;100508.88;;;13.38;75.62
68301;BME280;55146;47.468;18.806;2022-10-16T01:40:32;100498.63;;;13.39;75.68
68301;BME280;55146;47.468;18.806;2022-10-16T01:43:03;100506.69;;;13.30;76.30
68301;BME280;55146;47.468;18.806;2022-10-16T01:45:31;100519.41;;;13.11;77.20
68301;BME280;55146;47.468;18.806;2022-10-16T01:47:58;100523.84;;;13.12;76.98
68301;BME280;55146;47.468;18.806;2022-10-16T01:50:26;100525.53;;;13.13;77.49
68301;BME280;55146;47.468;18.806;2022-10-16T01:52:52;100521.34;;;13.15;77.58
68301;BME280;55146;47.468;18.806;2022-10-16T01:55:28;100527.72;;;13.16;77.23
68301;BME280;55146;47.468;18.806;2022-10-16T01:57:55;100529.66;;;13.00;77.49
68301;BME280;55146;47.468;18.806;2022-10-16T02:00:22;100519.44;;;13.06;76.88
68301;BME280;55146;47.468;18.806;2022-10-16T02:02:50;100534.34;;;13.15;76.27
68301;BME280;55146;47.468;18.806;2022-10-16T02:07:51;100528.84;;;13.00;77.55
68301;BME280;55146;47.468;18.806;2022-10-16T02:10:17;100535.22;;;12.95;77.82
68301;BME280;55146;47.468;18.806;2022-10-16T02:12:49;100536.03;;;12.85;77.90
68301;BME280;55146;47.468;18.806;2022-10-16T02:15:15;100537.97;;;12.90;77.15
68301;BME280;55146;47.468;18.806;2022-10-16T02:17:40;100545.44;;;12.89;77.29
68301;BME280;55146;47.468;18.806;2022-10-16T02:20:06;100543.22;;;12.91;77.82
68301;BME280;55146;47.468;18.806;2022-10-16T02:22:39;100546.53;;;12.93;76.07
68301;BME280;55146;47.468;18.806;2022-10-16T02:25:12;100545.44;;;12.89;76.75
68301;BME280;55146;47.468;18.806;2022-10-16T02:30:16;100551.50;;;12.86;77.44
68301;BME280;55146;47.468;18.806;2022-10-16T02:32:46;100550.13;;;12.84;77.31
68301;BME280;55146;47.468;18.806;2022-10-16T02:35:15;100549.84;;;12.80;77.48
68301;BME280;55146;47.468;18.806;2022-10-16T02:37:41;100555.94;;;12.77;77.79
68301;BME280;55146;47.468;18.806;2022-10-16T02:40:08;100551.25;;;12.73;77.96
68301;BME280;55146;47.468;18.806;2022-10-16T02:42:35;100557.88;;;12.67;78.15
68301;BME280;55146;47.468;18.806;2022-10-16T02:45:01;100563.97;;;12.64;78.15
68301;BME280;55146;47.468;18.806;2022-10-16T02:47:26;100560.38;;;12.58;78.19
68301;BME280;55146;47.468;18.806;2022-10-16T02:49:52;100561.75;;;12.45;79.04
68301;BME280;55146;47.468;18.806;2022-10-16T02:52:17;100566.44;;;12.45;78.51
68301;BME280;55146;47.468;18.806;2022-10-16T02:54:43;100560.34;;;12.48;78.59
68301;BME280;55146;47.468;18.806;2022-10-16T02:57:08;100564.50;;;12.50;78.14
68301;BME280;55146;47.468;18.806;2022-10-16T02:59:33;100571.12;;;12.54;77.90
68301;BME280;55146;47.468;18.806;2022-10-16T03:01:58;100568.63;;;12.53;78.25
68301;BME280;55146;47.468;18.806;2022-10-16T03:04:24;100570.84;;;12.51;78.18
68301;BME280;55146;47.468;18.806;2022-10-16T03:06:49;100567.25;;;12.50;77.77
68301;BME280;55146;47.468;18.806;2022-10-16T03:09:15;100568.09;;;12.51;77.72
68301;BME280;55146;47.468;18.806;2022-10-16T03:11:40;100575.25;;;12.47;77.95
68301;BME280;55146;47.468;18.806;2022-10-16T03:14:05;100576.66;;;12.39;77.74
68301;BME280;55146;47.468;18.806;2022-10-16T03:16:31;100582.44;;;12.38;77.19
68301;BME280;55146;47.468;18.806;2022-10-16T03:18:56;100577.19;;;12.41;77.55
68301;BME280;55146;47.468;18.806;2022-10-16T03:21:21;100579.66;;;12.38;78.20
68301;BME280;55146;47.468;18.806;2022-10-16T03:23:46;100581.03;;;12.35;78.03
68301;BME280;55146;47.468;18.806;2022-10-16T03:26:12;100585.19;;;12.28;77.80
68301;BME280;55146;47.468;18.806;2022-10-16T03:28:37;100586.28;;;12.22;77.85
68301;BME280;55146;47.468;18.806;2022-10-16T03:31:02;100591.78;;;12.22;78.17
68301;BME280;55146;47.468;18.806;2022-10-16T03:33:28;100591.22;;;12.09;78.70
68301;BME280;55146;47.468;18.806;2022-10-16T03:35:54;100589.56;;;12.08;78.85
68301;BME280;55146;47.468;18.806;2022-10-16T03:38:20;100591.75;;;12.06;79.03
68301;BME280;55146;47.468;18.806;2022-10-16T03:40:46;100598.09;;;12.02;78.84
68301;BME280;55146;47.468;18.806;2022-10-16T03:43:11;100603.31;;;11.98;79.06
68301;BME280;55146;47.468;18.806;2022-10-16T03:45:37;100602.78;;;12.01;78.99
68301;BME280;55146;47.468;18.806;2022-10-16T03:48:02;100610.22;;;12.01;78.96
68301;BME280;55146;47.468;18.806;2022-10-16T03:50:28;100604.69;;;11.96;78.66
68301;BME280;55146;47.468;18.806;2022-10-16T03:52:54;100603.59;;;11.97;78.91
68301;BME280;55146;47.468;18.806;2022-10-16T03:55:19;100597.50;;;11.95;78.88
68301;BME280;55146;47.468;18.806;2022-10-16T03:57:44;100607.97;;;11.88;78.88
68301;BME280;55146;47.468;18.806;2022-10-16T04:00:10;100610.16;;;11.86;78.94
68301;BME280;55146;47.468;18.806;2022-10-16T04:02:36;100611.22;;;11.80;79.33
68301;BME280;55146;47.468;18.806;2022-10-16T04:05:01;100617.56;;;11.80;79.57
68301;BME280;55146;47.468;18.806;2022-10-16T04:07:26;100620.56;;;11.73;79.38
68301;BME280;55146;47.468;18.806;2022-10-16T04:09:52;100617.56;;;11.75;79.34
68301;BME280;55146;47.468;18.806;2022-10-16T04:12:17;100610.91;;;11.71;79.22
68301;BME280;55146;47.468;18.806;2022-10-16T04:14:42;100618.09;;;11.72;79.39
68301;BME280;55146;47.468;18.806;2022-10-16T04:17:08;100617.22;;;11.66;79.56
68301;BME280;55146;47.468;18.806;2022-10-16T04:19:33;100626.84;;;11.59;80.12
68301;BME280;55146;47.468;18.806;2022-10-16T04:21:58;100618.00;;;11.62;80.30
68301;BME280;55146;47.468;18.806;2022-10-16T04:24:24;100617.75;;;11.58;80.07
68301;BME280;55146;47.468;18.806;2022-10-16T04:26:49;100620.19;;;11.55;80.48
68301;BME280;55146;47.468;18.806;2022-10-16T04:29:14;100625.44;;;11.56;80.21
68301;BME280;55146;47.468;18.806;2022-10-16T04:31:39;100630.34;;;11.49;80.18
68301;BME280;55146;47.468;18.806;2022-10-16T04:34:05;100633.91;;;11.45;80.58
68301;BME280;55146;47.468;18.806;2022-10-16T04:36:30;100630.63;;;11.48;80.31
68301;BME280;55146;47.468;18.806;2022-10-16T04:38:56;100625.06;;;11.43;80.25
68301;BME280;55146;47.468;18.806;2022-10-16T04:41:21;100629.22;;;11.40;80.07
68301;BME280;55146;47.468;18.806;2022-10-16T04:43:46;100622.28;;;11.38;80.08
68301;BME280;55146;47.468;18.806;2022-10-16T04:46:12;100629.72;;;11.32;80.15
68301;BME280;55146;47.468;18.806;2022-10-16T04:48:37;100629.72;;;11.32;80.31
68301;BME280;55146;47.468;18.806;2022-10-16T04:51:03;100627.50;;;11.29;80.24
68301;BME280;55146;47.468;18.806;2022-10-16T04:53:28;100630.78;;;11.31;80.25
68301;BME280;55146;47.468;18.806;2022-10-16T04:55:53;100630.78;;;11.31;80.29
68301;BME280;55146;47.468;18.806;2022-10-16T04:58:19;100631.59;;;11.26;80.36
68301;BME280;55146;47.468;18.806;2022-10-16T05:00:45;100632.94;;;11.24;80.54
68301;BME280;55146;47.468;18.806;2022-10-16T05:03:11;100628.81;;;11.21;80.55
68301;BME280;55146;47.468;18.806;2022-10-16T05:05:36;100635.69;;;11.24;80.87
68301;BME280;55146;47.468;18.806;2022-10-16T05:08:07;100627.97;;;11.16;81.71
68301;BME280;55146;47.468;18.806;2022-10-16T05:10:32;100627.25;;;10.99;82.20
68301;BME280;55146;47.468;18.806;2022-10-16T05:12:57;100640.31;;;11.13;82.24
68301;BME280;55146;47.468;18.806;2022-10-16T05:15:23;100642.78;;;11.10;82.29
68301;BME280;55146;47.468;18.806;2022-10-16T05:17:52;100642.56;;;11.16;81.87
68301;BME280;55146;47.468;18.806;2022-10-16T05:20:17;100647.28;;;11.26;81.03
68301;BME280;55146;47.468;18.806;2022-10-16T05:22:43;100638.84;;;11.43;79.17
68301;BME280;55146;47.468;18.806;2022-10-16T05:25:08;100639.22;;;11.14;81.36
68301;BME280;55146;47.468;18.806;2022-10-16T05:27:33;100646.00;;;11.39;79.32
68301;BME280;55146;47.468;18.806;2022-10-16T05:29:59;100646.28;;;11.42;78.72
68301;BME280;55146;47.468;18.806;2022-10-16T05:32:24;100659.44;;;11.30;79.40
68301;BME280;55146;47.468;18.806;2022-10-16T05:34:50;100658.94;;;11.38;80.03
68301;BME280;55146;47.468;18.806;2022-10-16T05:37:15;100660.06;;;11.42;79.83
68301;BME280;55146;47.468;18.806;2022-10-16T05:39:41;100657.31;;;11.42;79.71
68301;BME280;55146;47.468;18.806;2022-10-16T05:42:06;100653.44;;;11.38;78.71
68301;BME280;55146;47.468;18.806;2022-10-16T05:44:32;100659.78;;;11.39;79.72
68301;BME280;55146;47.468;18.806;2022-10-16T05:46:57;100658.38;;;11.36;80.05
68301;BME280;55146;47.468;18.806;2022-10-16T05:49:22;100659.03;;;11.53;77.85
68301;BME280;55146;47.468;18.806;2022-10-16T05:51:48;100647.78;;;11.60;78.15
68301;BME280;55146;47.468;18.806;2022-10-16T05:54:13;100654.09;;;11.60;78.85
68301;BME280;55146;47.468;18.806;2022-10-16T05:56:38;100660.66;;;11.49;79.97
68301;BME280;55146;47.468;18.806;2022-10-16T05:59:04;100671.69;;;11.49;80.11
68301;BME280;55146;47.468;18.806;2022-10-16T06:01:30;100676.88;;;11.41;80.46
68301;BME280;55146;47.468;18.806;2022-10-16T06:03:56;100688.53;;;11.58;79.54
68301;BME280;55146;47.468;18.806;2022-10-16T06:06:23;100694.09;;;11.68;78.86
68301;BME280;55146;47.468;18.806;2022-10-16T06:08:51;100692.41;;;11.57;79.71
68301;BME280;55146;47.468;18.806;2022-10-16T06:11:19;100690.84;;;11.71;78.77
68301;BME280;55146;47.468;18.806;2022-10-16T06:13:45;100696.41;;;11.81;77.93
68301;BME280;55146;47.468;18.806;2022-10-16T06:16:11;100697.00;;;11.88;76.94
68301;BME280;55146;47.468;18.806;2022-10-16T06:18:37;100702.88;;;12.02;76.09
68301;BME280;55146;47.468;18.806;2022-10-16T06:21:20;100713.06;;;11.96;77.30
68301;BME280;55146;47.468;18.806;2022-10-16T06:23:46;100717.81;;;12.16;75.52
68301;BME280;55146;47.468;18.806;2022-10-16T06:26:13;100716.72;;;12.22;75.97
68301;BME280;55146;47.468;18.806;2022-10-16T06:28:40;100714.00;;;12.27;75.73
68301;BME280;55146;47.468;18.806;2022-10-16T06:31:06;100713.78;;;12.39;75.14
68301;BME280;55146;47.468;18.806;2022-10-16T06:33:32;100719.56;;;12.47;76.16
68301;BME280;55146;47.468;18.806;2022-10-16T06:36:17;100713.00;;;12.64;72.92
68301;BME280;55146;47.468;18.806;2022-10-16T06:38:43;100725.47;;;12.86;72.78
68301;BME280;55146;47.468;18.806;2022-10-16T06:41:15;100734.03;;;13.10;72.11
68301;BME280;55146;47.468;18.806;2022-10-16T06:43:41;100732.16;;;13.36;71.97
68301;BME280;55146;47.468;18.806;2022-10-16T06:46:09;100740.97;;;13.68;72.33
68301;BME280;55146;47.468;18.806;2022-10-16T06:48:35;100748.91;;;14.00;69.24
68301;BME280;55146;47.468;18.806;2022-10-16T06:53:29;100761.50;;;14.47;66.05
68301;BME280;55146;47.468;18.806;2022-10-16T06:55:56;100778.53;;;14.74;66.29
68301;BME280;55146;47.468;18.806;2022-10-16T06:58:21;100776.72;;;14.98;65.22
68301;BME280;55146;47.468;18.806;2022-10-16T07:00:47;100770.19;;;15.23;64.25
68301;BME280;55146;47.468;18.806;2022-10-16T07:03:13;100770.97;;;15.29;64.45
68301;BME280;55146;47.468;18.806;2022-10-16T07:05:40;100769.16;;;15.48;62.90
68301;BME280;55146;47.468;18.806;2022-10-16T07:08:06;100771.97;;;15.77;63.27
68301;BME280;55146;47.468;18.806;2022-10-16T07:10:32;100760.81;;;15.82;60.92
68301;BME280;55146;47.468;18.806;2022-10-16T07:12:58;100754.97;;;16.07;61.47
68301;BME280;55146;47.468;18.806;2022-10-16T07:15:25;100764.91;;;16.37;61.54
68301;BME280;55146;47.468;18.806;2022-10-16T07:17:50;100757.56;;;16.46;60.08
68301;BME280;55146;47.468;18.806;2022-10-16T07:20:16;100761.84;;;16.39;61.46
68301;BME280;55146;47.468;18.806;2022-10-16T07:22:41;100760.81;;;16.53;60.73
68301;BME280;55146;47.468;18.806;2022-10-16T07:25:07;100760.94;;;16.43;58.33
68301;BME280;55146;47.468;18.806;2022-10-16T07:27:32;100758.25;;;16.57;58.14
68301;BME280;55146;47.468;18.806;2022-10-16T07:29:58;100764.91;;;16.80;58.37
68301;BME280;55146;47.468;18.806;2022-10-16T07:32:23;100764.91;;;16.80;56.77
68301;BME280;55146;47.468;18.806;2022-10-16T07:34:50;100771.47;;;16.89;57.92
68301;BME280;55146;47.468;18.806;2022-10-16T07:37:16;100770.41;;;17.04;59.11
68301;BME280;55146;47.468;18.806;2022-10-16T07:39:41;100780.41;;;17.23;58.52
68301;BME280;55146;47.468;18.806;2022-10-16T07:42:06;100783.81;;;17.20;56.07
68301;BME280;55146;47.468;18.806;2022-10-16T07:44:32;100786.66;;;17.15;56.53
68301;BME280;55146;47.468;18.806;2022-10-16T07:46:58;100796.94;;;17.15;59.25
68301;BME280;55146;47.468;18.806;2022-10-16T07:49:23;100796.94;;;17.33;59.23
68301;BME280;55146;47.468;18.806;2022-10-16T07:51:48;100800.84;;;17.32;58.88
68301;BME280;55146;47.468;18.806;2022-10-16T07:54:14;100804.75;;;17.31;59.88
68301;BME280;55146;47.468;18.806;2022-10-16T07:56:39;100802.50;;;17.33;59.90
68301;BME280;55146;47.468;18.806;2022-10-16T07:59:04;100808.44;;;17.27;59.09
68301;BME280;55146;47.468;18.806;2022-10-16T08:01:29;100803.37;;;17.29;59.40
68301;BME280;55146;47.468;18.806;2022-10-16T08:03:58;100811.53;;;17.25;57.98
68301;BME280;55146;47.468;18.806;2022-10-16T08:06:23;100811.22;;;17.27;58.02
68301;BME280;55146;47.468;18.806;2022-10-16T08:08:49;100819.19;;;17.33;59.61
68301;BME280;55146;47.468;18.806;2022-10-16T08:11:14;100803.09;;;17.30;59.33
68301;BME280;55146;47.468;18.806;2022-10-16T08:13:40;100811.00;;;17.23;61.43
68301;BME280;55146;47.468;18.806;2022-10-16T08:16:06;100808.44;;;17.27;59.22
68301;BME280;55146;47.468;18.806;2022-10-16T08:18:37;100813.56;;;17.01;58.16
68301;BME280;55146;47.468;18.806;2022-10-16T08:21:03;100818.81;;;17.03;59.49
68301;BME280;55146;47.468;18.806;2022-10-16T08:23:29;100820.22;;;17.00;58.68
68301;BME280;55146;47.468;18.806;2022-10-16T08:25:56;100814.88;;;17.04;59.11
68301;BME280;55146;47.468;18.806;2022-10-16T08:28:22;100816.09;;;17.16;59.18
68301;BME280;55146;47.468;18.806;2022-10-16T08:30:48;100815.41;;;17.06;59.68
68301;BME280;55146;47.468;18.806;2022-10-16T08:33:13;100820.91;;;17.11;58.58
68301;BME280;55146;47.468;18.806;2022-10-16T08:35:38;100825.97;;;17.09;60.01
68301;BME280;55146;47.468;18.806;2022-10-16T08:38:05;100840.53;;;17.19;60.52
68301;BME280;55146;47.468;18.806;2022-10-16T08:40:31;100841.66;;;17.37;58.94
68301;BME280;55146;47.468;18.806;2022-10-16T08:50:52;100844.50;;;17.51;60.30
68301;BME280;55146;47.468;18.806;2022-10-16T08:53:22;100846.31;;;17.60;58.03
68301;BME280;55146;47.468;18.806;2022-10-16T08:55:51;100843.16;;;17.67;57.67
68301;BME280;55146;47.468;18.806;2022-10-16T08:58:22;100850.50;;;17.95;58.18
68301;BME280;55146;47.468;18.806;2022-10-16T09:00:56;100849.28;;;18.15;57.57
68301;BME280;55146;47.468;18.806;2022-10-16T09:08:46;100839.84;;;18.43;55.76
68301;BME280;55146;47.468;18.806;2022-10-16T09:14:20;100847.25;;;19.03;54.19
68301;BME280;55146;47.468;18.806;2022-10-16T09:17:01;100849.03;;;19.12;54.11
68301;BME280;55146;47.468;18.806;2022-10-16T09:19:44;100849.50;;;19.28;54.51
68301;BME280;55146;47.468;18.806;2022-10-16T09:22:15;100852.81;;;19.30;52.64
68301;BME280;55146;47.468;18.806;2022-10-16T09:24:41;100842.62;;;19.12;53.79
68301;BME280;55146;47.468;18.806;2022-10-16T09:27:10;100851.81;;;19.12;53.33
68301;BME280;55146;47.468;18.806;2022-10-16T09:29:36;100846.66;;;19.06;53.99
68301;BME280;55146;47.468;18.806;2022-10-16T09:32:11;100848.81;;;19.09;54.34
68301;BME280;55146;47.468;18.806;2022-10-16T09:34:43;100850.22;;;19.20;54.73
68301;BME280;55146;47.468;18.806;2022-10-16T09:37:13;100862.06;;;19.53;54.49
68301;BME280;55146;47.468;18.806;2022-10-16T09:39:50;100862.06;;;19.53;53.47
68301;BME280;55146;47.468;18.806;2022-10-16T09:42:21;100866.31;;;19.72;52.56
68301;BME280;55146;47.468;18.806;2022-10-16T09:44:49;100866.66;;;19.93;52.83
68301;BME280;55146;47.468;18.806;2022-10-16T09:47:18;100870.63;;;20.01;51.09
68301;BME280;55146;47.468;18.806;2022-10-16T09:49:59;100881.56;;;19.89;52.34
68301;BME280;55146;47.468;18.806;2022-10-16T09:52:30;100875.31;;;19.69;51.51
68301;BME280;55146;47.468;18.806;2022-10-16T09:54:57;100877.63;;;19.67;51.78
68301;BME280;55146;47.468;18.806;2022-10-16T09:57:24;100877.75;;;19.62;53.00
68301;BME280;55146;47.468;18.806;2022-10-16T09:59:52;100864.84;;;19.75;54.46
68301;BME280;55146;47.468;18.806;2022-10-16T10:02:38;100870.87;;;20.13;53.54
68301;BME280;55146;47.468;18.806;2022-10-16T10:05:24;100860.25;;;20.46;51.99
68301;BME280;55146;47.468;18.806;2022-10-16T10:08:01;100852.97;;;20.36;50.19
68301;BME280;55146;47.468;18.806;2022-10-16T10:10:33;100855.03;;;20.31;50.87
68301;BME280;55146;47.468;18.806;2022-10-16T10:12:59;100847.31;;;20.58;52.06
68301;BME280;55146;47.468;18.806;2022-10-16T10:15:27;100847.37;;;20.36;51.96
68301;BME280;55146;47.468;18.806;2022-10-16T10:17:57;100854.34;;;20.47;50.99
68301;BME280;55146;47.468;18.806;2022-10-16T10:22:54;100851.13;;;20.09;51.07
68301;BME280;55146;47.468;18.806;2022-10-16T10:25:49;100843.00;;;20.52;51.79
68301;BME280;55146;47.468;18.806;2022-10-16T10:28:36;100849.22;;;20.49;50.68
68301;BME280;55146;47.468;18.806;2022-10-16T10:31:17;100846.78;;;20.56;50.79
68301;BME280;55146;47.468;18.806;2022-10-16T10:33:58;100841.97;;;20.40;52.31
68301;BME280;55146;47.468;18.806;2022-10-16T10:36:32;100833.37;;;20.67;50.78
68301;BME280;55146;47.468;18.806;2022-10-16T10:39:09;100837.72;;;20.90;50.75
68301;BME280;55146;47.468;18.806;2022-10-16T10:44:55;100841.69;;;21.07;49.70
68301;BME280;55146;47.468;18.806;2022-10-16T10:47:29;100842.91;;;21.40;49.45
68301;BME280;55146;47.468;18.806;2022-10-16T10:55:33;100838.97;;;21.41;51.51
68301;BME280;55146;47.468;18.806;2022-10-16T10:58:32;100849.34;;;21.49;49.01
68301;BME280;55146;47.468;18.806;2022-10-16T11:01:14;100838.16;;;21.41;47.54
68301;BME280;55146;47.468;18.806;2022-10-16T11:04:03;100841.25;;;21.22;47.41
68301;BME280;55146;47.468;18.806;2022-10-16T11:06:36;100847.03;;;21.34;47.76
68301;BME280;55146;47.468;18.806;2022-10-16T11:09:41;100837.16;;;21.54;49.13
68301;BME280;55146;47.468;18.806;2022-10-16T11:12:18;100832.53;;;21.75;48.60
68301;BME280;55146;47.468;18.806;2022-10-16T11:14:56;100826.75;;;21.80;47.53
68301;BME280;55146;47.468;18.806;2022-10-16T11:17:31;100829.72;;;22.01;47.05
68301;BME280;55146;47.468;18.806;2022-10-16T11:20:13;100828.09;;;21.65;46.97
68301;BME280;55146;47.468;18.806;2022-10-16T11:22:45;100826.75;;;21.63;48.07
68301;BME280;55146;47.468;18.806;2022-10-16T11:25:32;100831.38;;;21.76;47.52
68301;BME280;55146;47.468;18.806;2022-10-16T11:28:11;100829.91;;;21.78;45.80
68301;BME280;55146;47.468;18.806;2022-10-16T11:30:47;100826.56;;;21.94;45.59
68301;BME280;55146;47.468;18.806;2022-10-16T11:35:48;100824.59;;;22.03;46.01
68301;BME280;55146;47.468;18.806;2022-10-16T11:41:18;100829.91;;;21.53;47.09
68301;BME280;55146;47.468;18.806;2022-10-16T11:46:24;100822.97;;;21.16;46.68
68301;BME280;55146;47.468;18.806;2022-10-16T11:49:08;100826.00;;;20.88;49.58
68301;BME280;55146;47.468;18.806;2022-10-16T11:55:09;100825.78;;;21.33;46.28
68301;BME280;55146;47.468;18.806;2022-10-16T11:57:43;100819.13;;;20.94;48.64
68301;BME280;55146;47.468;18.806;2022-10-16T12:00:35;100814.19;;;21.00;48.71
68301;BME280;55146;47.468;18.806;2022-10-16T12:03:21;100814.91;;;21.23;48.01
68301;BME280;55146;47.468;18.806;2022-10-16T12:06:01;100821.31;;;21.66;47.39
68301;BME280;55146;47.468;18.806;2022-10-16T12:08:30;100808.59;;;21.86;47.23
68301;BME280;55146;47.468;18.806;2022-10-16T12:16:56;100810.78;;;21.63;47.03
68301;BME280;55146;47.468;18.806;2022-10-16T12:19:25;100806.34;;;21.71;45.42
68301;BME280;55146;47.468;18.806;2022-10-16T12:21:51;100796.09;;;21.66;46.24
68301;BME280;55146;47.468;18.806;2022-10-16T12:24:38;100797.91;;;21.79;47.18
68301;BME280;55146;47.468;18.806;2022-10-16T12:27:06;100799.28;;;21.48;48.04
68301;BME280;55146;47.468;18.806;2022-10-16T12:29:44;100796.28;;;21.61;47.93
68301;BME280;55146;47.468;18.806;2022-10-16T12:32:40;100794.50;;;21.65;47.12
68301;BME280;55146;47.468;18.806;2022-10-16T12:35:16;100795.47;;;21.69;45.72
68301;BME280;55146;47.468;18.806;2022-10-16T12:37:44;100791.84;;;21.69;46.17
68301;BME280;55146;47.468;18.806;2022-10-16T12:40:22;100793.63;;;21.82;46.79
68301;BME280;55146;47.468;18.806;2022-10-16T12:42:50;100790.34;;;21.71;46.72
68301;BME280;55146;47.468;18.806;2022-10-16T12:45:25;100793.31;;;21.66;46.91
68301;BME280;55146;47.468;18.806;2022-10-16T12:47:53;100795.28;;;21.74;46.59
68301;BME280;55146;47.468;18.806;2022-10-16T12:50:48;100794.50;;;21.65;47.50
68301;BME280;55146;47.468;18.806;2022-10-16T12:53:25;100790.72;;;21.53;46.85
68301;BME280;55146;47.468;18.806;2022-10-16T12:58:47;100803.53;;;21.71;46.11
68301;BME280;55146;47.468;18.806;2022-10-16T13:01:34;100803.50;;;21.79;47.20
68301;BME280;55146;47.468;18.806;2022-10-16T13:05:08;100806.47;;;21.74;46.93
68301;BME280;55146;47.468;18.806;2022-10-16T13:07:36;100805.84;;;21.69;47.35
68301;BME280;55146;47.468;18.806;2022-10-16T13:10:24;100802.38;;;21.55;47.31
68301;BME280;55146;47.468;18.806;2022-10-16T13:18:25;100812.59;;;21.51;48.18
68301;BME280;55146;47.468;18.806;2022-10-16T13:21:08;100815.91;;;21.44;47.34
68301;BME280;55146;47.468;18.806;2022-10-16T13:26:29;100814.75;;;21.36;47.05
68301;BME280;55146;47.468;18.806;2022-10-16T13:28:59;100821.50;;;21.44;48.31
68301;BME280;55146;47.468;18.806;2022-10-16T13:31:26;100821.00;;;21.33;48.92
68301;BME280;55146;47.468;18.806;2022-10-16T13:33:54;100823.50;;;21.35;47.77
68301;BME280;55146;47.468;18.806;2022-10-16T13:36:26;100818.38;;;21.28;47.12
68301;BME280;55146;47.468;18.806;2022-10-16T13:41:36;100820.69;;;21.26;47.34
68301;BME280;55146;47.468;18.806;2022-10-16T13:44:01;100818.31;;;21.11;48.32
68301;BME280;55146;47.468;18.806;2022-10-16T13:46:27;100822.16;;;21.15;48.12
68301;BME280;55146;47.468;18.806;2022-10-16T13:48:57;100814.53;;;21.07;48.81
68301;BME280;55146;47.468;18.806;2022-10-16T13:51:22;100819.34;;;21.24;48.90
68301;BME280;55146;47.468;18.806;2022-10-16T13:53:52;100821.66;;;21.22;47.81
68301;BME280;55146;47.468;18.806;2022-10-16T13:56:20;100827.69;;;21.07;48.35
68301;BME280;55146;47.468;18.806;2022-10-16T13:58:46;100831.78;;;21.00;48.83
68301;BME280;55146;47.468;18.806;2022-10-16T14:01:18;100836.09;;;20.98;49.27
68301;BME280;55146;47.468;18.806;2022-10-16T14:03:46;100837.97;;;20.72;49.88
68301;BME280;55146;47.468;18.806;2022-10-16T14:06:17;100829.09;;;20.70;49.53
68301;BME280;55146;47.468;18.806;2022-10-16T14:08:46;100821.00;;;20.68;49.74